BOG weather

El Dorado International Airport
Bogota, Cundinamarca Department, Colombia

Public forecast

Using degrees Celsius for public forecast. Weather courtesy of forecast.io.

Current aviation weather report (METAR) for El Dorado International Airport

Retrieved 2019/10/19 11:00 UTC (51 minutes ago):

SKBO 191100Z VRB02KT 9999 -DZ FEW012 OVC070 11/10 A3034 NOSIG

Aviation forecast (TAF) for El Dorado International Airport

Retrieved 2019/10/19 06:30 UTC (5 hours ago):

TAF SKBO 190430Z 1906/2006 03004KT 9999 SCT017 SCT080 TEMPO 1906/1909 6000 -DZRA BKN015 TEMPO 1909/1912 5000 VCFG DZ SCT013 BECMG 1915/1917 25010KT TEMPO 1919/1923 4000 TSRA SCT015CB TX20/1918Z TN09/1911Z